KIWD/IWD METAR and TAF weather

Enter ICAO airport designator
Station Type Date Time Source
KIWD METAR 2020/11/28 19:56 UTC NOAA

KIWD 281956Z AUTO 26008KT 10SM CLR 07/M03 A2980 RMK AO2 SLP104 T00721033


Station Type Date Time Source
KIWD Decoded METAR 2020/11/28 19:56 UTC NOAA

Ironwood, Gogebic-Iron County Airport, MI, United States (KIWD) 46-32N 090-08W
Nov 28, 2020 - 02:56 PM EST / 2020.11.28 1956 UTC
Wind: from the W (260 degrees) at 9 MPH (8 KT):0
Visibility: 10 mile(s):0
Sky conditions: clear
Temperature: 45.0 F (7.2 C)
Dew Point: 26.1 F (-3.3 C)
Relative Humidity: 47%
Pressure (altimeter): 29.8 in. Hg (1009 hPa)
ob: KIWD 281956Z AUTO 26008KT 10SM CLR 07/M03 A2980 RMK AO2 SLP104 T00721033
cycle: 20

Station Type Date Time Source
KIWD TAF 2020/11/28 18:22 UTC NOAA

TAF KIWD 281720Z 2818/2918 23007KT P6SM FEW250
FM291000 26010KT P6SM BKN150
FM291100 27010G18KT P6SM BKN120
FM291300 28012KT P6SM BKN070
FM291400 29012G20KT P6SM BKN040
FM291500 29013G21KT P6SM BKN016

Example: see airport list